Time;durP1;ratioP1;P1;durP2;ratioP2;P2;SDS_P1;SDS_P2;PMS_P1;PMS_P2;Temp;Humidity;BMP_temperature;BMP_pressure;BME280_temperature;BME280_humidity;BME280_pressure;Samples;Min_cycle;Max_cycle;Signal;HPM_P1;HPM_P2
2022/11/04 00:01:18;;;;;;;8.40;5.17;;;;;;;6.43;100.00;99741.59;5015338;28;20266;-71
2022/11/04 00:03:46;;;;;;;7.53;5.20;;;;;;;6.39;100.00;99742.56;5022025;28;20216;-71
2022/11/04 00:06:13;;;;;;;8.53;5.43;;;;;;;6.33;100.00;99740.13;5016535;28;20319;-70
2022/11/04 00:08:39;;;;;;;12.53;5.50;;;;;;;6.33;100.00;99728.91;5021498;28;20294;-71
2022/11/04 00:13:50;;;;;;;9.53;5.63;;;;;;;6.25;100.00;99732.53;5014465;28;20491;-72
2022/11/04 00:19:02;;;;;;;8.27;6.00;;;;;;;6.23;100.00;99733.44;5020226;28;20227;-71
2022/11/04 00:29:54;;;;;;;8.87;5.37;;;;;;;6.07;100.00;99713.09;5018808;28;20208;-71
2022/11/04 00:35:07;;;;;;;6.93;5.67;;;;;;;6.01;100.00;99705.44;5011894;28;20202;-71
2022/11/04 00:37:36;;;;;;;9.07;5.90;;;;;;;5.99;100.00;99699.44;5013616;28;20564;-71
2022/11/04 00:40:05;;;;;;;8.57;5.17;;;;;;;5.97;100.00;99702.97;5019968;28;20204;-71
2022/11/04 00:42:32;;;;;;;9.97;5.73;;;;;;;5.94;100.00;99709.00;5019376;28;20759;-70
2022/11/04 00:44:58;;;;;;;8.40;5.30;;;;;;;5.93;100.00;99709.91;5016091;28;20257;-70
2022/11/04 00:47:24;;;;;;;10.93;6.07;;;;;;;5.90;100.00;99706.53;5009191;28;20212;-71
2022/11/04 00:49:51;;;;;;;10.73;5.90;;;;;;;5.87;100.00;99713.50;5012040;28;20201;-71
2022/11/04 00:52:19;;;;;;;13.77;6.70;;;;;;;5.88;100.00;99710.00;5013401;28;20230;-71
2022/11/04 00:54:45;;;;;;;9.57;6.10;;;;;;;5.89;100.00;99708.25;5010110;28;20201;-71
2022/11/04 00:57:13;;;;;;;11.77;6.33;;;;;;;5.86;100.00;99709.19;5010214;28;20621;-71
2022/11/04 00:59:40;;;;;;;9.27;6.47;;;;;;;5.84;100.00;99704.91;4997593;28;20227;-71
2022/11/04 01:02:06;;;;;;;11.57;6.07;;;;;;;5.81;100.00;99699.84;5014723;28;20196;-71
2022/11/04 01:04:33;;;;;;;9.20;6.57;;;;;;;5.79;100.00;99707.63;5019347;28;20298;-72
2022/11/04 01:07:00;;;;;;;9.23;6.13;;;;;;;5.76;100.00;99715.44;5012073;28;20208;-72
2022/11/04 01:09:28;;;;;;;12.47;6.33;;;;;;;5.76;100.00;99705.09;5018044;28;20207;-71
2022/11/04 01:11:54;;;;;;;8.17;5.63;;;;;;;5.69;100.00;99695.75;5017511;28;20195;-71
2022/11/04 01:14:21;;;;;;;9.80;6.53;;;;;;;5.62;100.00;99705.38;5014262;28;20212;-71
2022/11/04 01:16:49;;;;;;;9.97;5.50;;;;;;;5.61;100.00;99715.75;5012749;28;20205;-71
2022/11/04 01:19:16;;;;;;;9.33;5.43;;;;;;;5.64;100.00;99703.59;5006633;28;20702;-72
2022/11/04 01:21:42;;;;;;;11.17;6.33;;;;;;;5.56;100.00;99704.63;5016077;28;20617;-71
2022/11/04 01:24:08;;;;;;;8.43;5.73;;;;;;;5.49;100.00;99702.19;4993880;28;20212;-71
2022/11/04 01:26:36;;;;;;;8.40;5.40;;;;;;;5.44;100.00;99698.00;5014223;28;20196;-72
2022/11/04 01:29:03;;;;;;;11.03;6.20;;;;;;;5.41;100.00;99688.56;5018582;28;20203;-71
2022/11/04 01:31:31;;;;;;;10.00;6.37;;;;;;;5.42;100.00;99685.09;5017881;28;20280;-71
2022/11/04 01:33:58;;;;;;;10.13;7.23;;;;;;;5.47;100.00;99682.41;5019074;28;20656;-72
2022/11/04 01:36:26;;;;;;;11.13;6.57;;;;;;;5.53;100.00;99689.22;5014646;28;20203;-71
2022/11/04 01:38:54;;;;;;;12.97;6.90;;;;;;;5.53;100.00;99689.22;4993102;28;20223;-71
2022/11/04 01:41:23;;;;;;;12.10;6.63;;;;;;;5.49;100.00;99683.25;4995986;28;20714;-71
2022/11/04 01:43:53;;;;;;;10.13;7.37;;;;;;;5.47;100.00;99685.88;5015864;28;20223;-71
2022/11/04 01:46:27;;;;;;;12.33;7.43;;;;;;;5.49;100.00;99680.66;4994009;28;20211;-71
2022/11/04 01:48:55;;;;;;;12.63;7.40;;;;;;;5.53;100.00;99677.13;5015356;28;20659;-71
2022/11/04 01:51:22;;;;;;;12.50;6.37;;;;;;;5.56;100.00;99671.03;5017693;28;20464;-71
2022/11/04 01:53:52;;;;;;;11.97;7.60;;;;;;;5.61;100.00;99667.47;4998974;28;20215;-71
2022/11/04 01:56:19;;;;;;;11.70;7.37;;;;;;;5.62;100.00;99669.16;5015777;28;20200;-71
2022/11/04 01:58:50;;;;;;;13.57;7.07;;;;;;;5.61;100.00;99661.44;5016668;28;20740;-71
2022/11/04 02:01:18;;;;;;;10.60;6.77;;;;;;;5.63;100.00;99654.53;5011231;28;20208;-71
2022/11/04 02:03:48;;;;;;;13.10;7.87;;;;;;;5.64;100.00;99656.22;5019479;28;20572;-71
2022/11/04 02:06:16;;;;;;;12.67;7.73;;;;;;;5.67;100.00;99658.75;5018310;28;20243;-70
2022/11/04 02:08:43;;;;;;;14.03;8.13;;;;;;;5.72;100.00;99656.03;5024539;28;20200;-71
2022/11/04 02:11:10;;;;;;;11.93;7.53;;;;;;;5.71;100.00;99660.38;5017660;28;20774;-71
2022/11/04 02:13:36;;;;;;;12.50;7.43;;;;;;;5.73;100.00;99655.16;5017255;28;20319;-71
2022/11/04 02:16:12;;;;;;;13.73;9.03;;;;;;;5.69;100.00;99649.22;5023596;28;20212;-72
2022/11/04 02:18:51;;;;;;;12.03;7.30;;;;;;;5.67;100.00;99649.22;5015993;28;20223;-71
2022/11/04 02:21:49;;;;;;;10.80;7.13;;;;;;;5.64;100.00;99638.94;5017348;28;20214;-71
2022/11/04 02:24:39;;;;;;;13.17;8.20;;;;;;;5.62;100.00;99632.13;5020481;28;20818;-71
2022/11/04 02:27:20;;;;;;;10.10;7.07;;;;;;;5.61;100.00;99638.16;4996835;28;20203;-71
2022/11/04 02:30:01;;;;;;;10.67;7.40;;;;;;;5.60;100.00;99641.66;4996991;28;20196;-71
2022/11/04 02:32:38;;;;;;;13.33;7.80;;;;;;;5.58;100.00;99646.84;5015136;28;20231;-71
2022/11/04 02:35:11;;;;;;;16.87;8.33;;;;;;;5.53;100.00;99647.84;5019002;28;20497;-71
2022/11/04 02:37:47;;;;;;;11.53;7.80;;;;;;;5.49;100.00;99642.72;5019636;28;20190;-71
2022/11/04 02:40:24;;;;;;;12.17;7.77;;;;;;;5.47;100.00;99641.91;5018417;28;20224;-72
2022/11/04 02:42:57;;;;;;;11.50;6.83;;;;;;;5.43;100.00;99635.09;5018100;28;20565;-71
2022/11/04 02:45:33;;;;;;;16.13;7.33;;;;;;;5.42;100.00;99637.72;5012907;28;20211;-71
2022/11/04 02:48:05;;;;;;;10.53;7.40;;;;;;;5.39;100.00;99630.88;5019771;28;20579;-71
2022/11/04 02:50:38;;;;;;;14.10;7.33;;;;;;;5.32;100.00;99637.91;5014970;28;20311;-71
2022/11/04 02:53:10;;;;;;;8.67;6.57;;;;;;;5.29;100.00;99644.84;5014237;28;20219;-71
2022/11/04 02:55:41;;;;;;;10.97;6.50;;;;;;;5.25;100.00;99651.81;5018556;28;20196;-71
2022/11/04 02:58:13;;;;;;;11.83;6.53;;;;;;;5.29;100.00;99639.69;5022285;28;20691;-70
2022/11/04 03:00:43;;;;;;;12.67;6.83;;;;;;;5.17;100.00;99640.81;5018265;28;20201;-71
2022/11/04 03:03:15;;;;;;;11.03;7.27;;;;;;;5.09;100.00;99645.25;5014717;28;20216;-71
2022/11/04 03:05:47;;;;;;;12.33;7.17;;;;;;;5.12;100.00;99638.31;5017171;28;20207;-71
2022/11/04 03:08:18;;;;;;;12.17;7.30;;;;;;;4.99;100.00;99641.16;5018740;28;20200;-71
2022/11/04 03:10:50;;;;;;;11.27;7.50;;;;;;;5.01;100.00;99641.97;5017017;28;20711;-71
2022/11/04 03:13:20;;;;;;;9.63;6.53;;;;;;;4.95;100.00;99637.78;5003672;28;20224;-71
2022/11/04 03:15:53;;;;;;;9.87;6.63;;;;;;;4.99;100.00;99647.16;5036875;23;20234;-73
2022/11/04 03:18:24;;;;;;;13.40;7.07;;;;;;;4.97;100.00;99643.75;5008707;28;20731;-73
2022/11/04 03:20:52;;;;;;;8.20;6.07;;;;;;;4.95;100.00;99642.94;5033713;28;20290;-73
2022/11/04 03:23:19;;;;;;;11.53;6.87;;;;;;;4.92;100.00;99659.34;5024749;28;20262;-73
2022/11/04 03:25:49;;;;;;;10.87;6.73;;;;;;;4.92;100.00;99658.47;5025667;28;20379;-73
2022/11/04 03:28:37;;;;;;;14.03;6.50;;;;;;;4.82;100.00;99669.84;5023598;28;20231;-73
2022/11/04 03:31:09;;;;;;;11.17;6.77;;;;;;;4.83;100.00;99672.41;5020371;28;20212;-73
2022/11/04 03:33:40;;;;;;;11.77;7.33;;;;;;;4.87;100.00;99663.75;5019986;28;20208;-73
2022/11/04 03:36:08;;;;;;;11.13;7.20;;;;;;;4.93;100.00;99660.19;5020331;28;20211;-73
2022/11/04 03:38:35;;;;;;;11.60;6.53;;;;;;;4.81;100.00;99661.28;5021142;28;20582;-73
2022/11/04 03:41:04;;;;;;;10.50;6.10;;;;;;;4.84;100.00;99666.38;5022997;28;20204;-73
2022/11/04 03:43:32;;;;;;;10.43;6.30;;;;;;;4.87;100.00;99662.88;5020269;28;20212;-72
2022/11/04 03:45:59;;;;;;;14.23;7.60;;;;;;;4.80;100.00;99671.63;5019749;28;20696;-74
2022/11/04 03:48:26;;;;;;;10.83;7.57;;;;;;;4.80;100.00;99664.75;5003825;28;20204;-73
2022/11/04 03:50:53;;;;;;;11.37;7.03;;;;;;;4.76;100.00;99670.81;5021114;28;20649;-73
2022/11/04 03:53:22;;;;;;;10.93;6.60;;;;;;;4.78;100.00;99669.06;5012476;28;20212;-74
2022/11/04 03:56:03;;;;;;;10.83;6.50;;;;;;;4.74;100.00;99675.16;5008753;28;20234;-71
2022/11/04 03:58:41;;;;;;;10.07;6.63;;;;;;;4.77;100.00;99657.03;5013148;28;20203;-72
2022/11/04 04:01:19;;;;;;;11.43;7.60;;;;;;;4.74;100.00;99651.94;5017686;28;20203;-73
2022/11/04 04:03:54;;;;;;;16.37;8.57;;;;;;;4.85;100.00;99639.66;5013531;28;20200;-72
2022/11/04 04:06:26;;;;;;;13.97;8.60;;;;;;;4.94;100.00;99633.47;5017849;28;20227;-73
2022/11/04 04:08:57;;;;;;;14.50;8.13;;;;;;;5.00;100.00;99638.53;5012781;28;20665;-73
2022/11/04 04:11:30;;;;;;;14.03;8.57;;;;;;;5.06;100.00;99659.06;5012917;28;20222;-73
2022/11/04 04:14:03;;;;;;;13.87;8.20;;;;;;;5.06;100.00;99653.91;5021880;28;20198;-73
2022/11/04 04:16:34;;;;;;;11.57;7.87;;;;;;;5.08;100.00;99670.25;5021073;28;20266;-74
2022/11/04 04:19:05;;;;;;;14.77;8.63;;;;;;;5.10;100.00;99663.31;5011819;28;20239;-72
2022/11/04 04:21:41;;;;;;;14.57;8.20;;;;;;;5.10;100.00;99662.44;5012838;28;20211;-72
2022/11/04 04:29:43;;;;;;;12.73;8.30;;;;;;;5.15;100.00;99664.97;5014235;28;20573;-76
2022/11/04 04:32:10;;;;;;;12.97;8.20;;;;;;;5.15;100.00;99670.97;5015439;28;20195;-76
2022/11/04 04:34:37;;;;;;;17.93;9.17;;;;;;;5.16;100.00;99659.75;5015276;28;20204;-73
2022/11/04 04:37:08;;;;;;;16.97;8.87;;;;;;;5.13;100.00;99664.97;5016426;28;20576;-73
2022/11/04 04:45:19;;;;;;;15.43;8.57;;;;;;;5.06;100.00;99658.22;5013711;28;20699;-74
2022/11/04 04:47:46;;;;;;;14.17;8.10;;;;;;;5.01;100.00;99666.06;5020453;28;20204;-72
2022/11/04 04:50:16;;;;;;;18.20;11.43;;;;;;;4.97;100.00;99658.41;5010270;28;20235;-73
2022/11/04 04:52:46;;;;;;;16.77;9.57;;;;;;;4.97;100.00;99655.81;5013113;28;20824;-72
2022/11/04 04:55:13;;;;;;;14.07;8.73;;;;;;;4.99;100.00;99657.50;5015627;28;20235;-73
2022/11/04 04:57:40;;;;;;;14.93;8.50;;;;;;;5.00;100.00;99664.38;5021932;28;20340;-72
2022/11/04 05:00:09;;;;;;;13.77;8.43;;;;;;;5.03;100.00;99666.03;5008542;28;20220;-72
2022/11/04 05:02:36;;;;;;;16.43;9.40;;;;;;;4.98;100.00;99667.84;5012103;28;20657;-72
2022/11/04 05:05:02;;;;;;;16.87;9.93;;;;;;;4.93;100.00;99663.63;4995784;28;20770;-72
2022/11/04 05:07:30;;;;;;;19.07;10.13;;;;;;;4.88;100.00;99662.00;4999659;28;20314;-73
2022/11/04 05:09:56;;;;;;;20.50;11.63;;;;;;;4.85;100.00;99662.91;5016230;28;20192;-72
2022/11/04 05:12:23;;;;;;;16.80;9.83;;;;;;;4.87;100.00;99674.09;5005153;28;20576;-73
2022/11/04 05:14:50;;;;;;;15.90;10.40;;;;;;;4.95;100.00;99675.69;5015981;28;20231;-72
2022/11/04 05:17:17;;;;;;;18.00;11.17;;;;;;;4.88;100.00;99680.09;5018183;28;20222;-72
2022/11/04 05:19:43;;;;;;;15.43;9.97;;;;;;;4.87;100.00;99674.09;5000489;28;20215;-72
2022/11/04 05:22:10;;;;;;;17.03;9.87;;;;;;;4.88;100.00;99677.50;5014130;28;20211;-72
2022/11/04 05:24:37;;;;;;;15.80;9.63;;;;;;;4.88;100.00;99675.78;4995249;28;20203;-73
2022/11/04 05:27:03;;;;;;;17.33;9.53;;;;;;;4.90;100.00;99683.50;5012050;28;20247;-75
2022/11/04 05:29:30;;;;;;;14.43;9.00;;;;;;;4.97;100.00;99694.59;5015120;28;20197;-75
2022/11/04 05:31:56;;;;;;;14.33;8.87;;;;;;;4.96;100.00;99692.88;5015560;28;20199;-75
2022/11/04 05:34:23;;;;;;;17.10;9.83;;;;;;;4.98;100.00;99697.13;5018999;28;20200;-75
2022/11/04 05:36:49;;;;;;;14.43;9.83;;;;;;;5.03;100.00;99694.47;5019090;28;20669;-75
2022/11/04 05:39:15;;;;;;;14.27;9.47;;;;;;;5.04;100.00;99693.59;5017270;28;20224;-75
2022/11/04 05:41:43;;;;;;;17.10;9.90;;;;;;;5.05;100.00;99697.88;5019314;28;20263;-75
2022/11/04 05:44:10;;;;;;;14.80;9.60;;;;;;;5.03;100.00;99692.75;5018782;28;20812;-74
2022/11/04 05:46:37;;;;;;;18.13;8.90;;;;;;;5.03;100.00;99699.63;5008772;28;20294;-73
2022/11/04 05:49:03;;;;;;;15.80;10.67;;;;;;;5.02;100.00;99697.94;5016449;28;20200;-73
2022/11/04 05:51:30;;;;;;;15.23;9.67;;;;;;;5.02;100.00;99706.53;5013740;28;20204;-73
2022/11/04 05:53:56;;;;;;;13.80;9.77;;;;;;;5.05;100.00;99710.81;5013987;28;20683;-71
2022/11/04 05:56:23;;;;;;;16.50;10.43;;;;;;;5.10;100.00;99714.13;5018565;28;20750;-72
2022/11/04 05:58:51;;;;;;;15.17;9.70;;;;;;;5.11;100.00;99719.28;5019428;28;20223;-73
2022/11/04 06:01:28;;;;;;;21.03;10.57;;;;;;;5.10;100.00;99715.00;5008507;28;20373;-73
2022/11/04 06:03:55;;;;;;;15.43;9.53;;;;;;;5.11;100.00;99711.53;5015239;28;20199;-71
2022/11/04 06:06:23;;;;;;;13.93;9.37;;;;;;;5.16;100.00;99716.63;5013900;28;20228;-73
2022/11/04 06:08:50;;;;;;;16.07;9.43;;;;;;;5.17;100.00;99718.34;5019358;28;20706;-73
2022/11/04 06:11:17;;;;;;;17.03;9.93;;;;;;;5.20;100.00;99707.91;5016523;28;20207;-75
2022/11/04 06:13:43;;;;;;;13.40;8.67;;;;;;;5.24;100.00;99721.63;5008506;28;20201;-75
2022/11/04 06:16:11;;;;;;;15.73;10.03;;;;;;;5.21;100.00;99724.28;5023846;28;20431;-74
2022/11/04 06:18:37;;;;;;;16.30;10.57;;;;;;;5.23;100.00;99722.53;5013699;28;20201;-75
2022/11/04 06:21:21;;;;;;;13.73;9.00;;;;;;;5.24;100.00;99717.34;5021689;28;20224;-76
2022/11/04 06:23:48;;;;;;;14.20;9.57;;;;;;;5.28;100.00;99723.31;5016822;28;20687;-75
2022/11/04 06:26:14;;;;;;;16.03;9.07;;;;;;;5.27;100.00;99737.94;5023888;28;20334;-75
2022/11/04 06:28:41;;;;;;;17.03;10.10;;;;;;;5.37;100.00;99730.03;5016251;28;20700;-75
2022/11/04 06:31:09;;;;;;;19.43;10.27;;;;;;;5.30;100.00;99739.63;5018256;28;20589;-75
2022/11/04 06:33:37;;;;;;;16.83;10.27;;;;;;;5.32;100.00;99741.28;5018535;28;20502;-76
2022/11/04 06:36:06;;;;;;;14.80;10.10;;;;;;;5.32;100.00;99748.19;5019978;28;20215;-75
2022/11/04 06:38:34;;;;;;;18.13;10.63;;;;;;;5.38;100.00;99742.94;5016521;28;20269;-75
2022/11/04 06:41:02;;;;;;;17.47;10.37;;;;;;;5.37;100.00;99746.38;5014329;28;20358;-75
2022/11/04 06:43:28;;;;;;;19.63;12.93;;;;;;;5.40;100.00;99743.75;5013550;28;20256;-76
2022/11/04 06:45:56;;;;;;;47.97;26.63;;;;;;;5.42;100.00;99754.06;5007887;28;20224;-72
2022/11/04 06:48:22;;;;;;;49.17;25.50;;;;;;;5.50;100.00;99750.44;5017199;28;20591;-72
2022/11/04 06:50:50;;;;;;;32.20;19.13;;;;;;;5.53;100.00;99749.53;5002925;28;20231;-72
2022/11/04 06:53:16;;;;;;;33.50;18.13;;;;;;;5.57;100.00;99748.56;5010036;28;20213;-73
2022/11/04 06:55:43;;;;;;;34.33;17.87;;;;;;;5.63;100.00;99750.22;5009360;28;20228;-72
2022/11/04 06:58:09;;;;;;;30.40;17.83;;;;;;;5.66;100.00;99743.25;5002477;28;20254;-73
2022/11/04 07:00:36;;;;;;;33.70;18.27;;;;;;;5.69;100.00;99750.91;5003587;28;20501;-74
2022/11/04 07:03:06;;;;;;;31.37;15.20;;;;;;;5.74;100.00;99755.16;5012123;28;20200;-74
2022/11/04 07:05:33;;;;;;;25.20;15.37;;;;;;;5.78;100.00;99756.81;5016775;28;20251;-73
2022/11/04 07:08:01;;;;;;;23.47;14.47;;;;;;;5.79;100.00;99749.00;5014955;28;20212;-73
2022/11/04 07:10:27;;;;;;;30.43;17.07;;;;;;;5.84;100.00;99747.19;5014420;28;20200;-73
2022/11/04 07:12:54;;;;;;;50.47;26.37;;;;;;;5.88;100.00;99743.63;5010757;28;20789;-74
2022/11/04 07:15:20;;;;;;;77.87;38.70;;;;;;;5.93;100.00;99735.78;5006146;28;20239;-72
2022/11/04 07:17:46;;;;;;;75.80;37.73;;;;;;;6.02;100.00;99735.63;4992308;28;20299;-73
2022/11/04 07:20:13;;;;;;;57.43;28.37;;;;;;;6.07;100.00;99738.97;4992714;28;20702;-73
2022/11/04 07:22:39;;;;;;;55.63;25.77;;;;;;;6.16;100.00;99737.06;4994593;28;20201;-72
2022/11/04 07:25:08;;;;;;;34.50;20.27;;;;;;;6.22;100.00;99737.75;4991396;28;20232;-72
2022/11/04 07:27:34;;;;;;;47.33;26.70;;;;;;;6.30;100.00;99741.91;4997030;28;20580;-74
2022/11/04 07:30:02;;;;;;;42.77;23.37;;;;;;;6.40;100.00;99738.22;4992613;28;20698;-73
2022/11/04 07:32:29;;;;;;;37.73;21.27;;;;;;;6.56;100.00;99742.19;4997033;28;20227;-73
2022/11/04 07:34:55;;;;;;;37.30;21.10;;;;;;;6.72;100.00;99737.47;4994963;28;20240;-73
2022/11/04 07:37:21;;;;;;;37.20;22.47;;;;;;;6.83;100.00;99732.03;4997506;28;20255;-72
2022/11/04 07:39:48;;;;;;;39.30;23.30;;;;;;;6.99;100.00;99737.69;4998924;28;20209;-72
2022/11/04 07:42:15;;;;;;;36.17;20.43;;;;;;;7.02;100.00;99727.25;4991843;28;20469;-74
2022/11/04 07:44:42;;;;;;;35.20;20.80;;;;;;;7.09;100.00;99726.19;4997211;28;20713;-73
2022/11/04 07:47:08;;;;;;;33.37;19.90;;;;;;;7.19;100.00;99729.38;4998871;28;20210;-73
2022/11/04 07:49:34;;;;;;;32.73;18.67;;;;;;;7.29;100.00;99738.59;5001431;28;20206;-73
2022/11/04 07:52:02;;;;;;;31.13;18.30;;;;;;;7.39;100.00;99739.22;4998703;28;20198;-72
2022/11/04 07:54:28;;;;;;;27.63;17.83;;;;;;;7.48;100.00;99738.13;4995628;28;20215;-73
2022/11/04 07:56:55;;;;;;;34.50;18.43;;;;;;;7.59;100.00;99734.31;4993349;28;20226;-74
2022/11/04 07:59:23;;;;;;;28.73;18.23;;;;;;;7.65;100.00;99733.31;4996258;28;20200;-72
2022/11/04 08:01:49;;;;;;;32.37;18.63;;;;;;;7.72;100.00;99740.03;4991718;28;20229;-74
2022/11/04 08:04:15;;;;;;;34.63;18.73;;;;;;;7.83;100.00;99744.03;4992956;28;20211;-73
2022/11/04 08:06:42;;;;;;;29.17;17.67;;;;;;;7.94;100.00;99739.41;5000363;28;20230;-72
2022/11/04 08:09:09;;;;;;;33.77;20.43;;;;;;;8.06;100.00;99738.19;4999329;28;20700;-74
2022/11/04 08:11:35;;;;;;;38.73;21.77;;;;;;;8.13;100.00;99731.94;4999026;28;20242;-73
2022/11/04 08:14:02;;;;;;;36.73;20.00;;;;;;;8.22;100.00;99731.63;5000480;28;20203;-72
2022/11/04 08:16:30;;;;;;;36.43;19.33;;;;;;;8.31;100.00;99725.31;4989742;28;20237;-72
2022/11/04 08:19:00;;;;;;;37.03;21.20;;;;;;;8.40;100.00;99737.16;4997773;28;20199;-72
2022/11/04 08:21:32;;;;;;;35.07;19.97;;;;;;;8.47;100.00;99742.13;4989348;28;20590;-74
2022/11/04 08:24:01;;;;;;;39.73;20.77;;;;;;;8.58;100.00;99751.34;4981460;28;20202;-74
2022/11/04 08:26:27;;;;;;;38.23;20.23;;;;;;;8.71;100.00;99747.47;4996474;28;20220;-73
2022/11/04 08:28:54;;;;;;;36.23;19.77;;;;;;;8.81;100.00;99737.59;4997614;28;20216;-73
2022/11/04 08:31:24;;;;;;;33.37;19.63;;;;;;;8.88;100.00;99737.38;4996908;28;20600;-73
2022/11/04 08:33:52;;;;;;;34.53;19.13;;;;;;;8.97;100.00;99736.22;4976163;28;20206;-74
2022/11/04 08:36:20;;;;;;;33.10;18.97;;;;;;;9.04;100.00;99742.91;4999460;28;20232;-74
2022/11/04 08:38:47;;;;;;;36.63;19.30;;;;;;;9.13;100.00;99739.16;4999580;28;20200;-74
2022/11/04 08:41:15;;;;;;;32.13;17.47;;;;;;;9.26;100.00;99744.75;4998004;28;20220;-74
2022/11/04 08:43:41;;;;;;;30.73;17.03;;;;;;;9.35;100.00;99746.19;4999793;28;20208;-76
2022/11/04 08:46:10;;;;;;;31.07;17.43;;;;;;;9.44;100.00;99749.31;4994642;28;20224;-74
2022/11/04 08:48:38;;;;;;;27.37;16.77;;;;;;;9.49;100.00;99736.16;4997394;28;20208;-74
2022/11/04 08:51:11;;;;;;;29.10;16.83;;;;;;;9.58;100.00;99738.41;4995635;28;20193;-74
2022/11/04 08:53:37;;;;;;;24.60;15.60;;;;;;;9.64;100.00;99748.63;4991156;28;20206;-73
2022/11/04 08:56:10;;;;;;;25.67;14.13;;;;;;;9.66;100.00;99741.59;4995810;28;20636;-74
2022/11/04 08:58:36;;;;;;;27.57;14.10;;;;;;;9.73;100.00;99744.00;4993238;28;20207;-74
2022/11/04 09:01:03;;;;;;;23.20;13.23;;;;;;;9.77;100.00;99728.19;4997792;28;20620;-74
2022/11/04 09:03:29;;;;;;;21.57;12.30;;;;;;;9.88;100.00;99719.97;4992695;28;20233;-74
2022/11/04 09:05:57;;;;;;;20.07;13.10;;;;;;;10.00;100.00;99721.25;4985240;28;20230;-73
2022/11/04 09:08:25;;;;;;;24.70;13.33;;;;;;;10.10;100.00;99704.38;4998421;28;20691;-74
2022/11/04 09:10:51;;;;;;;19.33;11.17;;;;;;;10.21;100.00;99702.19;4998519;28;20825;-73
2022/11/04 09:13:18;;;;;;;21.37;11.83;;;;;;;10.28;100.00;99708.03;4995158;28;20239;-74
2022/11/04 09:15:44;;;;;;;19.03;9.97;;;;;;;10.33;100.00;99721.75;5030864;23;20268;-73
2022/11/04 09:18:11;;;;;;;15.40;9.30;;;;;;;10.39;100.00;99715.44;5062026;28;20221;-74
2022/11/04 09:20:38;;;;;;;14.00;9.03;;;;;;;10.40;100.00;99709.31;5048268;28;20293;-72
2022/11/04 09:23:04;;;;;;;14.97;8.53;;;;;;;10.38;100.00;99705.94;5044033;28;20223;-71
2022/11/04 09:25:32;;;;;;;12.07;8.10;;;;;;;10.37;100.00;99710.28;5054874;28;20190;-73
2022/11/04 09:27:59;;;;;;;10.23;7.03;;;;;;;10.38;100.00;99709.38;5050851;28;20218;-74
2022/11/04 09:30:25;;;;;;;8.47;7.33;;;;;;;10.44;100.00;99713.50;5046782;28;20211;-73
2022/11/04 09:32:51;;;;;;;12.70;8.00;;;;;;;10.52;100.00;99695.81;5051113;28;20213;-74
2022/11/04 09:35:18;;;;;;;9.17;6.33;;;;;;;10.62;100.00;99680.63;5049782;28;20664;-73
2022/11/04 09:37:45;;;;;;;7.77;5.40;;;;;;;10.79;100.00;99682.53;5051241;28;20212;-73
2022/11/04 09:40:15;;;;;;;7.53;5.00;;;;;;;10.95;100.00;99682.72;5047668;28;20221;-73
2022/11/04 09:42:56;;;;;;;7.30;5.30;;;;;;;11.06;100.00;99695.31;5050790;28;20202;-74
2022/11/04 09:45:26;;;;;;;7.40;5.83;;;;;;;11.10;100.00;99702.09;5047356;28;20198;-74
2022/11/04 09:47:57;;;;;;;7.43;5.13;;;;;;;11.06;100.00;99700.53;5046301;28;20585;-74
2022/11/04 09:50:26;;;;;;;5.90;4.30;;;;;;;11.05;100.00;99706.69;5057512;28;20206;-74
2022/11/04 09:52:57;;;;;;;5.83;4.10;;;;;;;11.03;100.00;99708.47;5047981;28;20195;-74
2022/11/04 09:55:29;;;;;;;5.47;4.40;;;;;;;10.95;100.00;99720.09;5050848;28;20245;-74
2022/11/04 09:57:58;;;;;;;5.13;3.63;;;;;;;10.91;100.00;99725.50;5046028;28;20227;-73
2022/11/04 10:00:25;;;;;;;5.53;4.03;;;;;;;10.95;100.00;99719.25;5050486;28;20472;-74
2022/11/04 10:03:03;;;;;;;6.90;3.90;;;;;;;10.96;100.00;99726.16;5038460;28;20203;-73
2022/11/04 10:05:46;;;;;;;5.53;3.87;;;;;;;10.99;100.00;99728.63;5042983;28;20204;-74
2022/11/04 10:08:29;;;;;;;5.23;3.83;;;;;;;10.97;100.00;99723.47;5046761;28;20235;-73
2022/11/04 10:11:05;;;;;;;6.23;3.90;;;;;;;10.99;100.00;99726.88;5045017;28;20849;-72
2022/11/04 10:13:44;;;;;;;4.77;3.83;;;;;;;11.01;100.00;99726.81;5047986;28;20202;-73
2022/11/04 10:16:24;;;;;;;6.20;4.00;;;;;;;11.03;100.00;99729.34;5049296;28;20221;-73
2022/11/04 10:19:04;;;;;;;6.97;3.70;;;;;;;11.04;100.00;99733.66;5050037;28;20227;-73
2022/11/04 10:21:42;;;;;;;4.50;3.90;;;;;;;11.04;100.00;99733.66;5044899;28;20212;-73
2022/11/04 10:24:18;;;;;;;6.33;3.87;;;;;;;11.02;100.00;99741.53;5047993;28;20621;-74
2022/11/04 10:26:48;;;;;;;4.07;3.23;;;;;;;10.96;100.00;99739.22;5029980;28;20204;-74
2022/11/04 10:29:23;;;;;;;4.73;3.43;;;;;;;10.97;100.00;99744.34;5032641;28;20306;-74
2022/11/04 10:31:52;;;;;;;5.10;3.20;;;;;;;10.94;100.00;99747.09;5045851;28;20693;-71
2022/11/04 10:34:29;;;;;;;5.90;3.20;;;;;;;10.96;100.00;99744.44;5046321;28;20305;-74
2022/11/04 10:36:57;;;;;;;6.40;2.97;;;;;;;10.96;100.00;99752.25;5043931;28;20568;-73
2022/11/04 10:39:29;;;;;;;4.00;3.10;;;;;;;10.94;100.00;99752.31;5032921;28;20226;-73
2022/11/04 10:41:57;;;;;;;4.63;3.13;;;;;;;10.95;100.00;99761.81;5039710;28;20226;-74
2022/11/04 10:44:26;;;;;;;4.73;3.63;;;;;;;10.95;100.00;99764.41;5042697;28;20289;-74
2022/11/04 10:47:02;;;;;;;3.67;2.80;;;;;;;10.95;100.00;99768.81;5043013;28;20230;-74
2022/11/04 10:49:46;;;;;;;4.57;3.13;;;;;;;10.94;100.00;99780.13;5042817;28;20199;-73
2022/11/04 10:52:12;;;;;;;4.87;3.40;;;;;;;10.92;100.00;99775.00;5048763;28;20225;-72
2022/11/04 10:54:40;;;;;;;3.57;3.17;;;;;;;10.89;100.00;99776.91;5051844;28;20202;-73
2022/11/04 10:57:07;;;;;;;4.67;3.07;;;;;;;10.88;100.00;99777.78;5044876;28;20667;-74
2022/11/04 10:59:47;;;;;;;4.83;3.30;;;;;;;10.84;100.00;99778.84;5031452;28;20518;-73
2022/11/04 11:02:13;;;;;;;4.97;3.00;;;;;;;10.83;100.00;99779.72;5040934;28;20226;-73
2022/11/04 11:04:43;;;;;;;4.50;3.00;;;;;;;10.80;100.00;99786.78;5035319;28;20202;-73
2022/11/04 11:07:11;;;;;;;5.43;3.73;;;;;;;10.82;100.00;99788.44;5046311;28;20216;-73
2022/11/04 11:09:51;;;;;;;6.17;3.00;;;;;;;10.78;100.00;99788.59;5022636;28;20539;-73
2022/11/04 11:12:25;;;;;;;3.27;2.57;;;;;;;10.79;100.00;99779.84;5040821;28;20252;-74
2022/11/04 11:14:53;;;;;;;4.97;3.23;;;;;;;10.77;100.00;99780.84;5040286;28;20256;-73
2022/11/04 11:17:22;;;;;;;4.53;3.30;;;;;;;10.74;100.00;99776.56;5036662;28;20231;-72
2022/11/04 11:19:53;;;;;;;5.67;3.23;;;;;;;10.74;100.00;99778.34;5036775;28;20205;-74
2022/11/04 11:22:36;;;;;;;6.23;3.10;;;;;;;10.71;100.00;99779.34;5043984;28;20217;-73
2022/11/04 11:25:25;;;;;;;5.33;3.47;;;;;;;10.68;100.00;99778.59;5032438;28;20207;-73
2022/11/04 11:27:57;;;;;;;4.53;3.47;;;;;;;10.63;100.00;99785.75;5039916;28;20712;-74
2022/11/04 11:30:35;;;;;;;4.20;3.40;;;;;;;10.59;100.00;99783.25;5027637;28;20249;-74
2022/11/04 11:33:05;;;;;;;3.63;2.90;;;;;;;10.55;100.00;99797.34;5029550;28;20198;-72
2022/11/04 11:35:40;;;;;;;4.13;2.83;;;;;;;10.52;100.00;99794.84;5032563;28;20851;-74
2022/11/04 11:38:17;;;;;;;4.73;2.97;;;;;;;10.50;100.00;99801.00;5030885;28;20651;-73
2022/11/04 11:40:45;;;;;;;6.83;2.77;;;;;;;10.46;100.00;99802.88;5023843;28;20515;-73
2022/11/04 11:43:24;;;;;;;4.27;2.80;;;;;;;10.42;100.00;99799.56;5022175;28;20726;-74
2022/11/04 11:45:53;;;;;;;3.30;2.73;;;;;;;10.39;100.00;99794.44;5033362;28;20199;-73
2022/11/04 11:48:28;;;;;;;3.00;2.30;;;;;;;10.36;100.00;99792.00;5034211;28;20234;-73
2022/11/04 11:50:57;;;;;;;6.03;2.70;;;;;;;10.37;100.00;99785.00;5032178;28;20198;-72
2022/11/04 11:53:24;;;;;;;3.07;2.30;;;;;;;10.36;100.00;99791.13;5028624;28;20562;-73
2022/11/04 11:56:09;;;;;;;3.13;2.17;;;;;;;10.36;100.00;99792.00;5040079;28;20213;-73
2022/11/04 11:58:41;;;;;;;2.93;2.00;;;;;;;10.34;100.00;99786.00;5038746;28;20231;-74
2022/11/04 12:01:15;;;;;;;3.77;2.50;;;;;;;10.32;100.00;99787.78;5038998;28;20202;-73
2022/11/04 12:03:43;;;;;;;2.93;2.40;;;;;;;10.31;100.00;99790.44;5041149;28;20206;-73